sensor_id;sensor_type;location;lat;lon;timestamp;P1;durP1;ratioP1;P2;durP2;ratioP2
17145;SDS011;8688;54.444;18.444;2024-02-21T00:03:32;19.40;;;3.23;;
17145;SDS011;8688;54.444;18.444;2024-02-21T00:05:59;21.53;;;3.60;;
17145;SDS011;8688;54.444;18.444;2024-02-21T00:08:27;17.40;;;3.87;;
17145;SDS011;8688;54.444;18.444;2024-02-21T00:10:56;16.03;;;3.77;;
17145;SDS011;8688;54.444;18.444;2024-02-21T00:13:23;17.30;;;4.20;;
17145;SDS011;8688;54.444;18.444;2024-02-21T00:15:51;17.97;;;3.30;;
17145;SDS011;8688;54.444;18.444;2024-02-21T00:18:18;18.50;;;3.30;;
17145;SDS011;8688;54.444;18.444;2024-02-21T00:20:46;18.77;;;3.47;;
17145;SDS011;8688;54.444;18.444;2024-02-21T00:23:13;17.70;;;2.97;;
17145;SDS011;8688;54.444;18.444;2024-02-21T00:25:41;16.30;;;2.97;;
17145;SDS011;8688;54.444;18.444;2024-02-21T00:28:10;17.00;;;3.40;;
17145;SDS011;8688;54.444;18.444;2024-02-21T00:30:38;19.70;;;4.70;;
17145;SDS011;8688;54.444;18.444;2024-02-21T00:33:05;17.63;;;4.00;;
17145;SDS011;8688;54.444;18.444;2024-02-21T00:35:33;19.70;;;4.10;;
17145;SDS011;8688;54.444;18.444;2024-02-21T00:38:01;17.43;;;3.03;;
17145;SDS011;8688;54.444;18.444;2024-02-21T00:40:28;18.13;;;2.70;;
17145;SDS011;8688;54.444;18.444;2024-02-21T00:42:56;16.93;;;3.10;;
17145;SDS011;8688;54.444;18.444;2024-02-21T00:45:25;14.87;;;2.80;;
17145;SDS011;8688;54.444;18.444;2024-02-21T00:47:52;15.30;;;2.90;;
17145;SDS011;8688;54.444;18.444;2024-02-21T00:50:20;15.17;;;2.93;;
17145;SDS011;8688;54.444;18.444;2024-02-21T00:52:47;14.10;;;2.90;;
17145;SDS011;8688;54.444;18.444;2024-02-21T00:55:15;18.93;;;3.03;;
17145;SDS011;8688;54.444;18.444;2024-02-21T00:57:42;18.63;;;2.93;;
17145;SDS011;8688;54.444;18.444;2024-02-21T01:00:10;15.93;;;3.07;;
17145;SDS011;8688;54.444;18.444;2024-02-21T01:02:41;19.10;;;3.07;;
17145;SDS011;8688;54.444;18.444;2024-02-21T01:05:08;17.17;;;3.07;;
17145;SDS011;8688;54.444;18.444;2024-02-21T01:07:36;12.13;;;2.93;;
17145;SDS011;8688;54.444;18.444;2024-02-21T01:10:04;19.07;;;3.27;;
17145;SDS011;8688;54.444;18.444;2024-02-21T01:12:32;20.07;;;3.73;;
17145;SDS011;8688;54.444;18.444;2024-02-21T01:15:00;13.67;;;4.13;;
17145;SDS011;8688;54.444;18.444;2024-02-21T01:17:27;19.97;;;4.63;;
17145;SDS011;8688;54.444;18.444;2024-02-21T01:19:55;12.10;;;4.20;;
17145;SDS011;8688;54.444;18.444;2024-02-21T01:22:22;18.70;;;3.77;;
17145;SDS011;8688;54.444;18.444;2024-02-21T01:24:50;20.93;;;4.37;;
17145;SDS011;8688;54.444;18.444;2024-02-21T01:27:17;16.50;;;4.53;;
17145;SDS011;8688;54.444;18.444;2024-02-21T01:29:46;17.63;;;3.97;;
17145;SDS011;8688;54.444;18.444;2024-02-21T01:32:14;10.60;;;3.77;;
17145;SDS011;8688;54.444;18.444;2024-02-21T01:34:42;19.43;;;4.40;;
17145;SDS011;8688;54.444;18.444;2024-02-21T01:37:11;11.07;;;3.70;;
17145;SDS011;8688;54.444;18.444;2024-02-21T01:39:39;15.70;;;4.00;;
17145;SDS011;8688;54.444;18.444;2024-02-21T01:42:06;10.97;;;3.73;;
17145;SDS011;8688;54.444;18.444;2024-02-21T01:44:34;13.37;;;4.07;;
17145;SDS011;8688;54.444;18.444;2024-02-21T01:47:03;21.67;;;4.17;;
17145;SDS011;8688;54.444;18.444;2024-02-21T01:49:31;17.57;;;3.83;;
17145;SDS011;8688;54.444;18.444;2024-02-21T01:51:58;15.93;;;4.30;;
17145;SDS011;8688;54.444;18.444;2024-02-21T01:54:27;12.70;;;3.90;;
17145;SDS011;8688;54.444;18.444;2024-02-21T01:56:55;17.30;;;3.93;;
17145;SDS011;8688;54.444;18.444;2024-02-21T01:59:23;10.77;;;4.17;;
17145;SDS011;8688;54.444;18.444;2024-02-21T02:01:51;15.50;;;4.00;;
17145;SDS011;8688;54.444;18.444;2024-02-21T02:04:20;18.20;;;4.27;;
17145;SDS011;8688;54.444;18.444;2024-02-21T02:06:48;23.17;;;5.13;;
17145;SDS011;8688;54.444;18.444;2024-02-21T02:09:18;18.57;;;4.40;;
17145;SDS011;8688;54.444;18.444;2024-02-21T02:11:46;17.90;;;4.30;;
17145;SDS011;8688;54.444;18.444;2024-02-21T02:14:14;18.10;;;4.60;;
17145;SDS011;8688;54.444;18.444;2024-02-21T02:16:41;17.63;;;4.47;;
17145;SDS011;8688;54.444;18.444;2024-02-21T02:19:12;16.83;;;4.23;;
17145;SDS011;8688;54.444;18.444;2024-02-21T02:21:42;17.10;;;4.47;;
17145;SDS011;8688;54.444;18.444;2024-02-21T02:24:14;17.60;;;4.40;;
17145;SDS011;8688;54.444;18.444;2024-02-21T02:26:43;16.27;;;4.00;;
17145;SDS011;8688;54.444;18.444;2024-02-21T02:29:10;23.00;;;4.23;;
17145;SDS011;8688;54.444;18.444;2024-02-21T02:31:38;19.73;;;4.27;;
17145;SDS011;8688;54.444;18.444;2024-02-21T02:34:05;15.13;;;4.30;;
17145;SDS011;8688;54.444;18.444;2024-02-21T02:36:33;24.03;;;4.93;;
17145;SDS011;8688;54.444;18.444;2024-02-21T02:39:00;19.27;;;4.23;;
17145;SDS011;8688;54.444;18.444;2024-02-21T02:41:29;20.77;;;4.30;;
17145;SDS011;8688;54.444;18.444;2024-02-21T02:43:57;21.67;;;3.80;;
17145;SDS011;8688;54.444;18.444;2024-02-21T02:46:24;18.27;;;4.07;;
17145;SDS011;8688;54.444;18.444;2024-02-21T02:48:52;16.03;;;3.97;;
17145;SDS011;8688;54.444;18.444;2024-02-21T02:51:19;18.57;;;4.53;;
17145;SDS011;8688;54.444;18.444;2024-02-21T02:53:47;16.57;;;4.17;;
17145;SDS011;8688;54.444;18.444;2024-02-21T02:56:15;18.17;;;4.33;;
17145;SDS011;8688;54.444;18.444;2024-02-21T02:58:44;12.47;;;4.30;;
17145;SDS011;8688;54.444;18.444;2024-02-21T03:01:11;18.17;;;4.40;;
17145;SDS011;8688;54.444;18.444;2024-02-21T03:03:40;14.47;;;4.00;;
17145;SDS011;8688;54.444;18.444;2024-02-21T03:06:07;14.97;;;4.03;;
17145;SDS011;8688;54.444;18.444;2024-02-21T03:08:35;14.07;;;4.43;;
17145;SDS011;8688;54.444;18.444;2024-02-21T03:11:02;12.03;;;3.90;;
17145;SDS011;8688;54.444;18.444;2024-02-21T03:13:30;10.47;;;3.80;;
17145;SDS011;8688;54.444;18.444;2024-02-21T03:15:59;14.33;;;4.03;;
17145;SDS011;8688;54.444;18.444;2024-02-21T03:18:26;11.33;;;4.07;;
17145;SDS011;8688;54.444;18.444;2024-02-21T03:20:54;17.80;;;4.07;;
17145;SDS011;8688;54.444;18.444;2024-02-21T03:23:21;15.80;;;4.63;;
17145;SDS011;8688;54.444;18.444;2024-02-21T03:25:49;13.90;;;4.20;;
17145;SDS011;8688;54.444;18.444;2024-02-21T03:28:16;13.27;;;3.77;;
17145;SDS011;8688;54.444;18.444;2024-02-21T03:30:44;12.10;;;3.83;;
17145;SDS011;8688;54.444;18.444;2024-02-21T03:33:13;15.17;;;4.00;;
17145;SDS011;8688;54.444;18.444;2024-02-21T03:35:40;13.67;;;4.13;;
17145;SDS011;8688;54.444;18.444;2024-02-21T03:38:08;10.20;;;4.07;;
17145;SDS011;8688;54.444;18.444;2024-02-21T03:40:35;15.73;;;4.07;;
17145;SDS011;8688;54.444;18.444;2024-02-21T03:43:03;14.50;;;3.77;;
17145;SDS011;8688;54.444;18.444;2024-02-21T03:45:30;15.97;;;4.40;;
17145;SDS011;8688;54.444;18.444;2024-02-21T03:47:58;16.37;;;4.33;;
17145;SDS011;8688;54.444;18.444;2024-02-21T03:50:27;16.33;;;4.93;;
17145;SDS011;8688;54.444;18.444;2024-02-21T03:52:54;9.77;;;4.13;;
17145;SDS011;8688;54.444;18.444;2024-02-21T03:55:22;15.07;;;4.53;;
17145;SDS011;8688;54.444;18.444;2024-02-21T03:57:50;16.00;;;4.27;;
17145;SDS011;8688;54.444;18.444;2024-02-21T04:00:17;15.13;;;4.43;;
17145;SDS011;8688;54.444;18.444;2024-02-21T04:02:45;13.23;;;4.43;;
17145;SDS011;8688;54.444;18.444;2024-02-21T04:05:15;10.53;;;4.07;;
17145;SDS011;8688;54.444;18.444;2024-02-21T04:07:44;11.17;;;4.53;;
17145;SDS011;8688;54.444;18.444;2024-02-21T04:10:12;10.87;;;4.33;;
17145;SDS011;8688;54.444;18.444;2024-02-21T04:12:40;15.27;;;5.00;;
17145;SDS011;8688;54.444;18.444;2024-02-21T04:15:07;14.60;;;4.27;;
17145;SDS011;8688;54.444;18.444;2024-02-21T04:17:36;9.77;;;3.90;;
17145;SDS011;8688;54.444;18.444;2024-02-21T04:20:04;14.50;;;4.43;;
17145;SDS011;8688;54.444;18.444;2024-02-21T04:22:33;15.77;;;4.23;;
17145;SDS011;8688;54.444;18.444;2024-02-21T04:25:02;16.90;;;4.30;;
17145;SDS011;8688;54.444;18.444;2024-02-21T04:27:30;11.80;;;3.90;;
17145;SDS011;8688;54.444;18.444;2024-02-21T04:29:58;13.60;;;3.93;;
17145;SDS011;8688;54.444;18.444;2024-02-21T04:32:26;10.13;;;4.43;;
17145;SDS011;8688;54.444;18.444;2024-02-21T04:34:53;13.80;;;3.83;;
17145;SDS011;8688;54.444;18.444;2024-02-21T04:37:21;14.60;;;4.40;;
17145;SDS011;8688;54.444;18.444;2024-02-21T04:39:49;13.43;;;3.93;;
17145;SDS011;8688;54.444;18.444;2024-02-21T04:42:18;11.43;;;3.43;;
17145;SDS011;8688;54.444;18.444;2024-02-21T04:44:45;9.70;;;3.77;;
17145;SDS011;8688;54.444;18.444;2024-02-21T04:47:13;10.37;;;3.93;;
17145;SDS011;8688;54.444;18.444;2024-02-21T04:49:40;13.60;;;4.27;;
17145;SDS011;8688;54.444;18.444;2024-02-21T04:52:08;14.63;;;3.60;;
17145;SDS011;8688;54.444;18.444;2024-02-21T04:54:35;11.27;;;4.03;;
17145;SDS011;8688;54.444;18.444;2024-02-21T04:57:03;14.17;;;4.00;;
17145;SDS011;8688;54.444;18.444;2024-02-21T04:59:32;16.63;;;3.80;;
17145;SDS011;8688;54.444;18.444;2024-02-21T05:02:01;13.03;;;4.37;;
17145;SDS011;8688;54.444;18.444;2024-02-21T05:04:29;9.93;;;3.90;;
17145;SDS011;8688;54.444;18.444;2024-02-21T05:06:56;13.40;;;3.87;;
17145;SDS011;8688;54.444;18.444;2024-02-21T05:09:24;11.07;;;4.10;;
17145;SDS011;8688;54.444;18.444;2024-02-21T05:11:51;11.30;;;3.83;;
17145;SDS011;8688;54.444;18.444;2024-02-21T05:14:19;13.13;;;4.03;;
17145;SDS011;8688;54.444;18.444;2024-02-21T05:16:48;17.40;;;3.63;;
17145;SDS011;8688;54.444;18.444;2024-02-21T05:19:15;9.93;;;3.60;;
17145;SDS011;8688;54.444;18.444;2024-02-21T05:21:43;12.43;;;4.00;;
17145;SDS011;8688;54.444;18.444;2024-02-21T05:24:11;11.93;;;3.93;;
17145;SDS011;8688;54.444;18.444;2024-02-21T05:26:38;11.73;;;3.77;;
17145;SDS011;8688;54.444;18.444;2024-02-21T05:29:06;14.57;;;4.43;;
17145;SDS011;8688;54.444;18.444;2024-02-21T05:31:42;14.93;;;4.23;;
17145;SDS011;8688;54.444;18.444;2024-02-21T05:34:23;11.53;;;3.63;;
17145;SDS011;8688;54.444;18.444;2024-02-21T05:36:51;12.00;;;3.97;;
17145;SDS011;8688;54.444;18.444;2024-02-21T05:39:19;13.07;;;4.50;;
17145;SDS011;8688;54.444;18.444;2024-02-21T05:41:48;11.03;;;4.63;;
17145;SDS011;8688;54.444;18.444;2024-02-21T05:44:16;16.67;;;5.50;;
17145;SDS011;8688;54.444;18.444;2024-02-21T05:46:44;9.77;;;4.40;;
17145;SDS011;8688;54.444;18.444;2024-02-21T05:49:14;11.27;;;5.27;;
17145;SDS011;8688;54.444;18.444;2024-02-21T05:51:43;13.50;;;4.33;;
17145;SDS011;8688;54.444;18.444;2024-02-21T05:54:10;12.17;;;5.20;;
17145;SDS011;8688;54.444;18.444;2024-02-21T05:56:38;13.37;;;5.43;;
17145;SDS011;8688;54.444;18.444;2024-02-21T05:59:05;15.83;;;5.80;;
17145;SDS011;8688;54.444;18.444;2024-02-21T06:01:33;12.33;;;4.80;;
17145;SDS011;8688;54.444;18.444;2024-02-21T06:04:01;14.83;;;5.20;;
17145;SDS011;8688;54.444;18.444;2024-02-21T06:06:31;15.20;;;5.67;;
17145;SDS011;8688;54.444;18.444;2024-02-21T06:08:58;11.93;;;5.53;;
17145;SDS011;8688;54.444;18.444;2024-02-21T06:11:28;18.23;;;6.23;;
17145;SDS011;8688;54.444;18.444;2024-02-21T06:13:55;16.27;;;6.13;;
17145;SDS011;8688;54.444;18.444;2024-02-21T06:16:23;15.47;;;6.47;;
17145;SDS011;8688;54.444;18.444;2024-02-21T06:18:50;15.57;;;6.40;;
17145;SDS011;8688;54.444;18.444;2024-02-21T06:21:18;17.23;;;6.63;;
17145;SDS011;8688;54.444;18.444;2024-02-21T06:23:47;19.30;;;6.37;;
17145;SDS011;8688;54.444;18.444;2024-02-21T06:26:15;15.43;;;6.43;;
17145;SDS011;8688;54.444;18.444;2024-02-21T06:28:42;14.97;;;6.30;;
17145;SDS011;8688;54.444;18.444;2024-02-21T06:31:11;19.53;;;7.00;;
17145;SDS011;8688;54.444;18.444;2024-02-21T06:33:40;19.53;;;7.60;;
17145;SDS011;8688;54.444;18.444;2024-02-21T06:36:08;16.83;;;6.57;;
17145;SDS011;8688;54.444;18.444;2024-02-21T06:38:35;20.90;;;7.70;;
17145;SDS011;8688;54.444;18.444;2024-02-21T06:41:04;18.37;;;6.97;;
17145;SDS011;8688;54.444;18.444;2024-02-21T06:43:32;18.00;;;7.33;;
17145;SDS011;8688;54.444;18.444;2024-02-21T06:46:00;17.17;;;7.40;;
17145;SDS011;8688;54.444;18.444;2024-02-21T06:48:28;20.67;;;8.17;;
17145;SDS011;8688;54.444;18.444;2024-02-21T06:50:56;23.93;;;7.47;;
17145;SDS011;8688;54.444;18.444;2024-02-21T06:53:23;18.57;;;7.33;;
17145;SDS011;8688;54.444;18.444;2024-02-21T06:55:51;21.07;;;7.63;;
17145;SDS011;8688;54.444;18.444;2024-02-21T06:58:20;22.53;;;7.47;;
17145;SDS011;8688;54.444;18.444;2024-02-21T07:00:48;17.57;;;7.47;;
17145;SDS011;8688;54.444;18.444;2024-02-21T07:03:15;23.63;;;7.60;;
17145;SDS011;8688;54.444;18.444;2024-02-21T07:05:43;21.57;;;7.80;;
17145;SDS011;8688;54.444;18.444;2024-02-21T07:08:11;23.42;;;8.55;;
17145;SDS011;8688;54.444;18.444;2024-02-21T07:10:38;21.53;;;7.50;;
17145;SDS011;8688;54.444;18.444;2024-02-21T07:13:06;21.27;;;7.67;;
17145;SDS011;8688;54.444;18.444;2024-02-21T07:15:35;21.73;;;7.63;;
17145;SDS011;8688;54.444;18.444;2024-02-21T07:18:03;22.20;;;7.47;;
17145;SDS011;8688;54.444;18.444;2024-02-21T07:20:31;20.03;;;7.40;;
17145;SDS011;8688;54.444;18.444;2024-02-21T07:22:59;20.23;;;7.43;;
17145;SDS011;8688;54.444;18.444;2024-02-21T07:25:26;26.83;;;7.80;;
17145;SDS011;8688;54.444;18.444;2024-02-21T07:27:54;21.30;;;7.70;;
17145;SDS011;8688;54.444;18.444;2024-02-21T07:30:22;18.57;;;7.77;;
17145;SDS011;8688;54.444;18.444;2024-02-21T07:32:51;27.40;;;8.63;;
17145;SDS011;8688;54.444;18.444;2024-02-21T07:35:19;23.33;;;7.97;;
17145;SDS011;8688;54.444;18.444;2024-02-21T07:37:46;25.60;;;7.63;;
17145;SDS011;8688;54.444;18.444;2024-02-21T07:40:14;21.20;;;8.17;;
17145;SDS011;8688;54.444;18.444;2024-02-21T07:42:43;19.93;;;8.43;;
17145;SDS011;8688;54.444;18.444;2024-02-21T07:45:10;22.63;;;8.07;;
17145;SDS011;8688;54.444;18.444;2024-02-21T07:47:38;22.30;;;7.40;;
17145;SDS011;8688;54.444;18.444;2024-02-21T07:50:08;20.27;;;7.97;;
17145;SDS011;8688;54.444;18.444;2024-02-21T07:52:36;54.77;;;20.00;;
17145;SDS011;8688;54.444;18.444;2024-02-21T07:55:04;32.73;;;11.50;;
17145;SDS011;8688;54.444;18.444;2024-02-21T07:57:32;31.53;;;12.83;;
17145;SDS011;8688;54.444;18.444;2024-02-21T08:00:00;29.83;;;11.30;;
17145;SDS011;8688;54.444;18.444;2024-02-21T08:02:29;63.63;;;22.13;;
17145;SDS011;8688;54.444;18.444;2024-02-21T08:04:56;46.83;;;18.20;;
17145;SDS011;8688;54.444;18.444;2024-02-21T08:07:26;36.20;;;13.27;;
17145;SDS011;8688;54.444;18.444;2024-02-21T08:09:54;37.83;;;15.57;;
17145;SDS011;8688;54.444;18.444;2024-02-21T08:12:22;21.67;;;9.40;;
17145;SDS011;8688;54.444;18.444;2024-02-21T08:14:49;29.75;;;12.02;;
17145;SDS011;8688;54.444;18.444;2024-02-21T08:17:17;26.83;;;9.67;;
17145;SDS011;8688;54.444;18.444;2024-02-21T08:19:44;27.25;;;11.65;;
17145;SDS011;8688;54.444;18.444;2024-02-21T08:22:14;25.73;;;10.40;;
17145;SDS011;8688;54.444;18.444;2024-02-21T08:24:43;32.47;;;12.67;;
17145;SDS011;8688;54.444;18.444;2024-02-21T08:27:11;20.87;;;10.07;;
17145;SDS011;8688;54.444;18.444;2024-02-21T08:29:39;17.17;;;9.20;;
17145;SDS011;8688;54.444;18.444;2024-02-21T08:32:06;23.98;;;9.93;;
17145;SDS011;8688;54.444;18.444;2024-02-21T08:34:34;14.83;;;8.57;;
17145;SDS011;8688;54.444;18.444;2024-02-21T08:37:01;19.35;;;8.68;;
17145;SDS011;8688;54.444;18.444;2024-02-21T08:39:29;16.00;;;8.67;;
17145;SDS011;8688;54.444;18.444;2024-02-21T08:41:58;16.63;;;7.00;;
17145;SDS011;8688;54.444;18.444;2024-02-21T08:44:27;13.63;;;7.07;;
17145;SDS011;8688;54.444;18.444;2024-02-21T08:46:55;16.80;;;7.97;;
17145;SDS011;8688;54.444;18.444;2024-02-21T08:49:29;16.42;;;8.20;;
17145;SDS011;8688;54.444;18.444;2024-02-21T08:51:57;14.93;;;7.75;;
17145;SDS011;8688;54.444;18.444;2024-02-21T08:54:26;19.47;;;7.60;;
17145;SDS011;8688;54.444;18.444;2024-02-21T08:56:54;17.77;;;8.47;;
17145;SDS011;8688;54.444;18.444;2024-02-21T08:59:24;20.23;;;9.80;;
17145;SDS011;8688;54.444;18.444;2024-02-21T09:01:53;19.05;;;8.60;;
17145;SDS011;8688;54.444;18.444;2024-02-21T09:04:21;24.43;;;9.93;;
17145;SDS011;8688;54.444;18.444;2024-02-21T09:06:49;23.50;;;8.83;;
17145;SDS011;8688;54.444;18.444;2024-02-21T09:09:18;21.57;;;9.63;;
17145;SDS011;8688;54.444;18.444;2024-02-21T09:11:46;17.37;;;9.33;;
17145;SDS011;8688;54.444;18.444;2024-02-21T09:14:14;16.88;;;8.05;;
17145;SDS011;8688;54.444;18.444;2024-02-21T09:16:44;18.53;;;9.57;;
17145;SDS011;8688;54.444;18.444;2024-02-21T09:19:11;15.70;;;7.32;;
17145;SDS011;8688;54.444;18.444;2024-02-21T09:21:40;20.57;;;9.93;;
17145;SDS011;8688;54.444;18.444;2024-02-21T09:24:08;20.10;;;10.30;;
17145;SDS011;8688;54.444;18.444;2024-02-21T09:26:36;20.10;;;10.07;;
17145;SDS011;8688;54.444;18.444;2024-02-21T09:29:04;22.07;;;10.10;;
17145;SDS011;8688;54.444;18.444;2024-02-21T09:31:33;24.03;;;10.03;;
17145;SDS011;8688;54.444;18.444;2024-02-21T09:34:05;20.80;;;9.57;;
17145;SDS011;8688;54.444;18.444;2024-02-21T09:36:34;21.70;;;9.83;;
17145;SDS011;8688;54.444;18.444;2024-02-21T09:39:06;24.30;;;9.63;;
17145;SDS011;8688;54.444;18.444;2024-02-21T09:41:37;19.60;;;10.25;;
17145;SDS011;8688;54.444;18.444;2024-02-21T09:44:09;18.02;;;9.20;;
17145;SDS011;8688;54.444;18.444;2024-02-21T09:46:42;21.42;;;9.85;;
17145;SDS011;8688;54.444;18.444;2024-02-21T09:49:24;18.70;;;9.05;;
17145;SDS011;8688;54.444;18.444;2024-02-21T09:51:58;18.00;;;8.57;;
17145;SDS011;8688;54.444;18.444;2024-02-21T09:54:30;14.93;;;8.00;;
17145;SDS011;8688;54.444;18.444;2024-02-21T09:56:59;14.50;;;9.13;;
17145;SDS011;8688;54.444;18.444;2024-02-21T09:59:30;16.57;;;8.67;;
17145;SDS011;8688;54.444;18.444;2024-02-21T10:02:01;14.27;;;8.07;;
17145;SDS011;8688;54.444;18.444;2024-02-21T10:04:36;15.35;;;9.10;;
17145;SDS011;8688;54.444;18.444;2024-02-21T10:07:06;14.35;;;8.30;;
17145;SDS011;8688;54.444;18.444;2024-02-21T10:09:35;12.95;;;7.40;;
17145;SDS011;8688;54.444;18.444;2024-02-21T10:12:10;16.20;;;8.50;;
17145;SDS011;8688;54.444;18.444;2024-02-21T10:14:39;12.00;;;7.00;;
17145;SDS011;8688;54.444;18.444;2024-02-21T10:17:08;11.18;;;6.78;;
17145;SDS011;8688;54.444;18.444;2024-02-21T10:19:46;11.00;;;6.70;;
17145;SDS011;8688;54.444;18.444;2024-02-21T10:22:16;9.23;;;6.33;;
17145;SDS011;8688;54.444;18.444;2024-02-21T10:24:46;13.02;;;6.53;;
17145;SDS011;8688;54.444;18.444;2024-02-21T10:27:14;10.40;;;6.00;;
17145;SDS011;8688;54.444;18.444;2024-02-21T10:29:42;13.18;;;5.88;;
17145;SDS011;8688;54.444;18.444;2024-02-21T10:32:16;10.85;;;5.75;;
17145;SDS011;8688;54.444;18.444;2024-02-21T10:34:47;11.50;;;5.73;;
17145;SDS011;8688;54.444;18.444;2024-02-21T10:37:17;11.35;;;5.95;;
17145;SDS011;8688;54.444;18.444;2024-02-21T10:39:47;7.28;;;5.30;;
17145;SDS011;8688;54.444;18.444;2024-02-21T10:42:17;9.00;;;4.95;;
17145;SDS011;8688;54.444;18.444;2024-02-21T10:44:50;7.05;;;4.82;;
17145;SDS011;8688;54.444;18.444;2024-02-21T10:47:21;7.63;;;4.40;;
17145;SDS011;8688;54.444;18.444;2024-02-21T10:49:55;8.55;;;4.78;;
17145;SDS011;8688;54.444;18.444;2024-02-21T10:52:31;8.48;;;5.03;;
17145;SDS011;8688;54.444;18.444;2024-02-21T10:55:09;7.97;;;5.00;;
17145;SDS011;8688;54.444;18.444;2024-02-21T10:57:44;10.18;;;5.53;;
17145;SDS011;8688;54.444;18.444;2024-02-21T11:00:14;8.52;;;6.40;;
17145;SDS011;8688;54.444;18.444;2024-02-21T11:02:46;9.95;;;6.57;;
17145;SDS011;8688;54.444;18.444;2024-02-21T11:05:19;8.48;;;6.20;;
17145;SDS011;8688;54.444;18.444;2024-02-21T11:07:48;10.15;;;5.50;;
17145;SDS011;8688;54.444;18.444;2024-02-21T11:10:23;12.60;;;6.28;;
17145;SDS011;8688;54.444;18.444;2024-02-21T11:12:52;8.88;;;5.18;;
17145;SDS011;8688;54.444;18.444;2024-02-21T11:15:24;10.15;;;5.53;;
17145;SDS011;8688;54.444;18.444;2024-02-21T11:17:59;10.23;;;5.35;;
17145;SDS011;8688;54.444;18.444;2024-02-21T11:20:36;9.43;;;5.00;;
17145;SDS011;8688;54.444;18.444;2024-02-21T11:23:05;7.47;;;4.63;;
17145;SDS011;8688;54.444;18.444;2024-02-21T11:25:37;7.70;;;4.80;;
17145;SDS011;8688;54.444;18.444;2024-02-21T11:28:05;8.93;;;5.05;;
17145;SDS011;8688;54.444;18.444;2024-02-21T11:30:35;7.50;;;5.07;;
17145;SDS011;8688;54.444;18.444;2024-02-21T11:33:05;9.50;;;5.05;;
17145;SDS011;8688;54.444;18.444;2024-02-21T11:35:36;9.75;;;5.30;;
17145;SDS011;8688;54.444;18.444;2024-02-21T11:38:07;9.10;;;5.90;;
17145;SDS011;8688;54.444;18.444;2024-02-21T11:40:40;8.98;;;5.47;;
17145;SDS011;8688;54.444;18.444;2024-02-21T11:43:09;7.82;;;4.70;;
17145;SDS011;8688;54.444;18.444;2024-02-21T11:45:37;8.32;;;5.03;;
17145;SDS011;8688;54.444;18.444;2024-02-21T11:48:07;10.15;;;5.82;;
17145;SDS011;8688;54.444;18.444;2024-02-21T11:50:37;8.13;;;5.30;;
17145;SDS011;8688;54.444;18.444;2024-02-21T11:53:05;9.18;;;5.85;;
17145;SDS011;8688;54.444;18.444;2024-02-21T11:55:34;8.75;;;5.20;;
17145;SDS011;8688;54.444;18.444;2024-02-21T11:58:03;10.07;;;5.43;;
17145;SDS011;8688;54.444;18.444;2024-02-21T12:00:31;11.55;;;6.15;;
17145;SDS011;8688;54.444;18.444;2024-02-21T12:02:59;8.20;;;5.38;;
17145;SDS011;8688;54.444;18.444;2024-02-21T12:05:28;8.20;;;5.03;;
17145;SDS011;8688;54.444;18.444;2024-02-21T12:07:57;9.80;;;5.53;;
17145;SDS011;8688;54.444;18.444;2024-02-21T12:10:25;9.25;;;4.70;;
17145;SDS011;8688;54.444;18.444;2024-02-21T12:12:54;8.07;;;4.50;;
17145;SDS011;8688;54.444;18.444;2024-02-21T12:15:35;7.75;;;4.15;;
17145;SDS011;8688;54.444;18.444;2024-02-21T12:18:03;6.95;;;4.22;;
17145;SDS011;8688;54.444;18.444;2024-02-21T12:20:31;6.47;;;3.85;;
17145;SDS011;8688;54.444;18.444;2024-02-21T12:23:03;15.27;;;8.85;;
17145;SDS011;8688;54.444;18.444;2024-02-21T12:25:31;9.73;;;5.05;;
17145;SDS011;8688;54.444;18.444;2024-02-21T12:28:01;6.53;;;3.80;;
17145;SDS011;8688;54.444;18.444;2024-02-21T12:30:29;7.93;;;4.30;;
17145;SDS011;8688;54.444;18.444;2024-02-21T12:33:00;10.18;;;5.05;;
17145;SDS011;8688;54.444;18.444;2024-02-21T12:35:29;5.28;;;3.15;;
17145;SDS011;8688;54.444;18.444;2024-02-21T12:37:58;8.10;;;2.85;;
17145;SDS011;8688;54.444;18.444;2024-02-21T12:40:28;3.78;;;2.45;;
17145;SDS011;8688;54.444;18.444;2024-02-21T12:42:59;6.20;;;3.03;;
17145;SDS011;8688;54.444;18.444;2024-02-21T12:45:28;5.63;;;3.03;;
17145;SDS011;8688;54.444;18.444;2024-02-21T12:47:56;5.68;;;3.05;;
17145;SDS011;8688;54.444;18.444;2024-02-21T12:50:24;5.15;;;2.60;;
17145;SDS011;8688;54.444;18.444;2024-02-21T12:52:52;4.65;;;2.50;;
17145;SDS011;8688;54.444;18.444;2024-02-21T12:55:20;4.00;;;2.38;;
17145;SDS011;8688;54.444;18.444;2024-02-21T12:57:50;5.50;;;2.25;;
17145;SDS011;8688;54.444;18.444;2024-02-21T13:00:17;9.70;;;4.40;;
17145;SDS011;8688;54.444;18.444;2024-02-21T13:02:46;5.88;;;2.47;;
17145;SDS011;8688;54.444;18.444;2024-02-21T13:05:15;6.40;;;2.63;;
17145;SDS011;8688;54.444;18.444;2024-02-21T13:07:43;3.65;;;1.75;;
17145;SDS011;8688;54.444;18.444;2024-02-21T13:12:45;4.60;;;2.45;;
17145;SDS011;8688;54.444;18.444;2024-02-21T13:15:16;5.45;;;2.25;;
17145;SDS011;8688;54.444;18.444;2024-02-21T13:17:45;4.25;;;2.10;;
17145;SDS011;8688;54.444;18.444;2024-02-21T13:20:13;5.57;;;2.47;;
17145;SDS011;8688;54.444;18.444;2024-02-21T13:22:41;6.57;;;2.30;;
17145;SDS011;8688;54.444;18.444;2024-02-21T13:25:10;3.67;;;1.80;;
17145;SDS011;8688;54.444;18.444;2024-02-21T13:27:41;4.88;;;1.73;;
17145;SDS011;8688;54.444;18.444;2024-02-21T13:30:10;6.45;;;2.08;;
17145;SDS011;8688;54.444;18.444;2024-02-21T13:32:43;4.03;;;2.30;;
17145;SDS011;8688;54.444;18.444;2024-02-21T13:35:13;5.80;;;2.05;;
17145;SDS011;8688;54.444;18.444;2024-02-21T13:37:42;3.20;;;1.80;;
17145;SDS011;8688;54.444;18.444;2024-02-21T13:40:15;3.97;;;1.90;;
17145;SDS011;8688;54.444;18.444;2024-02-21T13:42:43;3.80;;;2.20;;
17145;SDS011;8688;54.444;18.444;2024-02-21T13:45:11;3.72;;;2.08;;
17145;SDS011;8688;54.444;18.444;2024-02-21T13:47:40;4.32;;;2.30;;
17145;SDS011;8688;54.444;18.444;2024-02-21T13:50:11;6.82;;;2.60;;
17145;SDS011;8688;54.444;18.444;2024-02-21T13:52:40;6.15;;;2.35;;
17145;SDS011;8688;54.444;18.444;2024-02-21T13:55:08;6.00;;;2.10;;
17145;SDS011;8688;54.444;18.444;2024-02-21T13:57:36;7.18;;;2.55;;
17145;SDS011;8688;54.444;18.444;2024-02-21T14:00:05;9.00;;;2.50;;
17145;SDS011;8688;54.444;18.444;2024-02-21T14:02:36;5.18;;;2.53;;
17145;SDS011;8688;54.444;18.444;2024-02-21T14:05:06;7.60;;;2.72;;
17145;SDS011;8688;54.444;18.444;2024-02-21T14:07:36;6.30;;;2.97;;
17145;SDS011;8688;54.444;18.444;2024-02-21T14:10:04;6.05;;;3.00;;
17145;SDS011;8688;54.444;18.444;2024-02-21T14:12:34;4.97;;;2.50;;
17145;SDS011;8688;54.444;18.444;2024-02-21T14:15:05;8.00;;;3.50;;
17145;SDS011;8688;54.444;18.444;2024-02-21T14:17:37;9.43;;;3.38;;
17145;SDS011;8688;54.444;18.444;2024-02-21T14:20:07;8.27;;;3.85;;
17145;SDS011;8688;54.444;18.444;2024-02-21T14:22:45;10.35;;;4.65;;
17145;SDS011;8688;54.444;18.444;2024-02-21T14:25:14;9.27;;;4.03;;
17145;SDS011;8688;54.444;18.444;2024-02-21T14:27:45;9.88;;;5.03;;
17145;SDS011;8688;54.444;18.444;2024-02-21T14:30:15;8.00;;;4.82;;
17145;SDS011;8688;54.444;18.444;2024-02-21T14:32:47;15.30;;;5.53;;
17145;SDS011;8688;54.444;18.444;2024-02-21T14:35:14;12.30;;;5.80;;
17145;SDS011;8688;54.444;18.444;2024-02-21T14:37:45;21.00;;;6.88;;
17145;SDS011;8688;54.444;18.444;2024-02-21T14:40:14;19.13;;;5.82;;
17145;SDS011;8688;54.444;18.444;2024-02-21T14:42:44;25.90;;;8.15;;
17145;SDS011;8688;54.444;18.444;2024-02-21T14:45:13;16.88;;;6.10;;
17145;SDS011;8688;54.444;18.444;2024-02-21T14:47:41;24.55;;;10.13;;
17145;SDS011;8688;54.444;18.444;2024-02-21T14:50:10;18.25;;;7.93;;
17145;SDS011;8688;54.444;18.444;2024-02-21T14:52:38;13.17;;;5.70;;